sensor_id;sensor_type;location;lat;lon;timestamp;P1;durP1;ratioP1;P2;durP2;ratioP2
48028;SDS011;33808;37.368;127.108;2023-02-13T08:13:20;4.03;;;2.15;;
48028;SDS011;33808;37.368;127.108;2023-02-13T08:16:48;2.72;;;1.88;;
48028;SDS011;33808;37.368;127.108;2023-02-13T08:20:17;3.03;;;1.80;;
48028;SDS011;33808;37.368;127.108;2023-02-13T08:23:20;2.63;;;1.73;;
48028;SDS011;33808;37.368;127.108;2023-02-13T08:26:49;4.10;;;1.95;;
48028;SDS011;33808;37.368;127.108;2023-02-13T08:30:18;4.63;;;2.10;;
48028;SDS011;33808;37.368;127.108;2023-02-13T08:33:47;3.67;;;2.22;;
48028;SDS011;33808;37.368;127.108;2023-02-13T08:37:16;2.47;;;2.22;;
48028;SDS011;33808;37.368;127.108;2023-02-13T08:40:44;2.75;;;2.10;;
48028;SDS011;33808;37.368;127.108;2023-02-13T08:44:13;3.28;;;2.15;;
48028;SDS011;33808;37.368;127.108;2023-02-13T08:47:42;2.40;;;1.67;;
48028;SDS011;33808;37.368;127.108;2023-02-13T08:51:11;7.28;;;1.70;;
48028;SDS011;33808;37.368;127.108;2023-02-13T08:54:39;2.72;;;2.03;;
48028;SDS011;33808;37.368;127.108;2023-02-13T08:58:08;3.03;;;1.73;;
48028;SDS011;33808;37.368;127.108;2023-02-13T09:01:37;2.30;;;1.80;;
48028;SDS011;33808;37.368;127.108;2023-02-13T09:05:06;2.53;;;1.85;;
48028;SDS011;33808;37.368;127.108;2023-02-13T09:08:34;3.03;;;1.80;;
48028;SDS011;33808;37.368;127.108;2023-02-13T09:12:03;1.85;;;1.55;;
48028;SDS011;33808;37.368;127.108;2023-02-13T09:15:32;2.70;;;2.00;;
48028;SDS011;33808;37.368;127.108;2023-02-13T09:19:01;3.15;;;1.67;;
48028;SDS011;33808;37.368;127.108;2023-02-13T09:22:30;1.80;;;1.52;;
48028;SDS011;33808;37.368;127.108;2023-02-13T09:25:59;2.33;;;1.77;;
48028;SDS011;33808;37.368;127.108;2023-02-13T09:29:27;2.92;;;1.70;;
48028;SDS011;33808;37.368;127.108;2023-02-13T09:32:40;3.30;;;1.90;;
48028;SDS011;33808;37.368;127.108;2023-02-13T09:36:10;4.50;;;2.10;;
48028;SDS011;33808;37.368;127.108;2023-02-13T09:39:37;3.30;;;2.30;;
48028;SDS011;33808;37.368;127.108;2023-02-13T09:43:10;2.83;;;2.15;;
48028;SDS011;33808;37.368;127.108;2023-02-13T09:46:36;2.83;;;2.20;;
48028;SDS011;33808;37.368;127.108;2023-02-13T09:50:15;3.90;;;2.60;;
48028;SDS011;33808;37.368;127.108;2023-02-13T09:53:43;9.07;;;2.33;;
48028;SDS011;33808;37.368;127.108;2023-02-13T10:08:58;3.90;;;2.60;;
48028;SDS011;33808;37.368;127.108;2023-02-13T10:39:40;3.33;;;2.40;;
48028;SDS011;33808;37.368;127.108;2023-02-13T10:43:09;5.45;;;2.90;;
48028;SDS011;33808;37.368;127.108;2023-02-13T10:46:45;2.60;;;2.20;;
48028;SDS011;33808;37.368;127.108;2023-02-13T11:02:42;4.38;;;2.95;;
48028;SDS011;33808;37.368;127.108;2023-02-13T11:06:11;4.65;;;2.70;;
48028;SDS011;33808;37.368;127.108;2023-02-13T11:09:40;3.55;;;2.60;;
48028;SDS011;33808;37.368;127.108;2023-02-13T11:13:18;4.15;;;2.75;;
48028;SDS011;33808;37.368;127.108;2023-02-13T11:16:47;3.88;;;2.80;;
48028;SDS011;33808;37.368;127.108;2023-02-13T11:19:48;3.78;;;2.42;;
48028;SDS011;33808;37.368;127.108;2023-02-13T11:23:34;4.20;;;2.60;;
48028;SDS011;33808;37.368;127.108;2023-02-13T11:52:55;4.37;;;2.77;;
48028;SDS011;33808;37.368;127.108;2023-02-13T11:55:44;5.22;;;2.92;;
48028;SDS011;33808;37.368;127.108;2023-02-13T11:59:32;5.15;;;3.13;;
48028;SDS011;33808;37.368;127.108;2023-02-13T12:02:59;4.38;;;2.80;;
48028;SDS011;33808;37.368;127.108;2023-02-13T12:06:36;3.97;;;2.63;;
48028;SDS011;33808;37.368;127.108;2023-02-13T12:13:28;3.50;;;2.38;;
48028;SDS011;33808;37.368;127.108;2023-02-13T12:19:58;3.45;;;2.35;;
48028;SDS011;33808;37.368;127.108;2023-02-13T12:26:58;2.95;;;2.40;;
48028;SDS011;33808;37.368;127.108;2023-02-13T12:39:45;2.78;;;2.15;;
48028;SDS011;33808;37.368;127.108;2023-02-13T12:46:49;2.75;;;2.03;;
48028;SDS011;33808;37.368;127.108;2023-02-13T12:50:20;3.45;;;2.22;;
48028;SDS011;33808;37.368;127.108;2023-02-13T12:56:58;2.53;;;2.13;;
48028;SDS011;33808;37.368;127.108;2023-02-13T13:00:41;2.03;;;1.70;;
48028;SDS011;33808;37.368;127.108;2023-02-13T13:06:59;1.95;;;1.55;;
48028;SDS011;33808;37.368;127.108;2023-02-13T13:13:30;2.25;;;1.67;;
48028;SDS011;33808;37.368;127.108;2023-02-13T13:16:08;2.20;;;1.75;;
48028;SDS011;33808;37.368;127.108;2023-02-13T13:22:38;2.05;;;1.60;;
48028;SDS011;33808;37.368;127.108;2023-02-13T13:29:42;2.33;;;1.60;;
48028;SDS011;33808;37.368;127.108;2023-02-13T13:33:03;1.80;;;1.35;;
48028;SDS011;33808;37.368;127.108;2023-02-13T13:36:47;2.78;;;1.80;;
48028;SDS011;33808;37.368;127.108;2023-02-13T13:40:04;2.20;;;1.40;;
48028;SDS011;33808;37.368;127.108;2023-02-13T13:49:54;1.30;;;1.20;;
48028;SDS011;33808;37.368;127.108;2023-02-13T13:53:29;1.30;;;1.20;;
48028;SDS011;33808;37.368;127.108;2023-02-13T14:06:00;1.40;;;1.30;;
48028;SDS011;33808;37.368;127.108;2023-02-13T14:12:45;1.58;;;1.25;;
48028;SDS011;33808;37.368;127.108;2023-02-13T14:15:49;1.48;;;1.02;;
48028;SDS011;33808;37.368;127.108;2023-02-13T14:22:33;1.30;;;1.00;;
48028;SDS011;33808;37.368;127.108;2023-02-13T14:26:10;1.67;;;1.33;;
48028;SDS011;33808;37.368;127.108;2023-02-13T14:29:45;1.38;;;1.10;;
48028;SDS011;33808;37.368;127.108;2023-02-13T14:33:23;1.20;;;0.80;;
48028;SDS011;33808;37.368;127.108;2023-02-13T14:43:48;1.15;;;1.05;;
48028;SDS011;33808;37.368;127.108;2023-02-13T14:50:15;1.38;;;1.10;;
48028;SDS011;33808;37.368;127.108;2023-02-13T14:53:30;1.40;;;1.20;;
48028;SDS011;33808;37.368;127.108;2023-02-13T15:06:43;2.63;;;1.42;;
